Time;durP1;ratioP1;P1;durP2;ratioP2;P2;SDS_P1;SDS_P2;PMS_P1;PMS_P2;Temp;Humidity;BMP_temperature;BMP_pressure;BME280_temperature;BME280_humidity;BME280_pressure;Samples;Min_cycle;Max_cycle;Signal;HPM_P1;HPM_P2
2023/12/12 00:02:11;;;;;;;12.57;11.27;;;;;;;19.84;42.61;100847.97;4620691;31;20060;-61
2023/12/12 00:04:39;;;;;;;12.73;11.30;;;;;;;19.83;42.42;100854.34;4621749;31;20056;-61
2023/12/12 00:07:06;;;;;;;13.00;10.95;;;;;;;19.82;42.35;100850.81;4622127;31;20051;-63
2023/12/12 00:09:33;;;;;;;13.02;10.93;;;;;;;19.82;42.29;100855.34;4612083;31;20508;-63
2023/12/12 00:12:01;;;;;;;12.20;10.68;;;;;;;19.82;42.34;100858.03;4633266;30;20066;-63
2023/12/12 00:14:28;;;;;;;11.27;10.07;;;;;;;19.81;42.41;100853.63;4621083;31;20064;-63
2023/12/12 00:16:55;;;;;;;13.20;11.10;;;;;;;19.82;42.49;100868.78;4622299;31;20067;-61
2023/12/12 00:19:23;;;;;;;14.07;10.95;;;;;;;19.80;42.69;100879.63;4620611;31;20055;-62
2023/12/12 00:21:50;;;;;;;12.77;10.60;;;;;;;19.80;42.66;100866.19;4620710;31;20052;-61
2023/12/12 00:24:18;;;;;;;12.73;11.40;;;;;;;19.80;42.65;100846.56;4621318;31;20408;-62
2023/12/12 00:26:45;;;;;;;12.45;10.15;;;;;;;19.81;42.74;100854.50;4621795;31;20484;-63
2023/12/12 00:29:12;;;;;;;12.25;10.93;;;;;;;19.81;42.85;100848.25;4619826;31;20052;-63
2023/12/12 00:31:39;;;;;;;10.95;9.73;;;;;;;19.80;42.85;100843.88;4620052;31;20414;-63
2023/12/12 00:34:07;;;;;;;11.57;10.38;;;;;;;19.80;42.86;100839.34;4620535;31;20052;-63
2023/12/12 00:36:34;;;;;;;13.10;10.85;;;;;;;19.79;42.72;100823.38;4621810;31;20055;-63
2023/12/12 00:39:01;;;;;;;11.65;10.45;;;;;;;19.77;42.79;100815.47;4619988;31;20059;-64
2023/12/12 00:41:33;;;;;;;11.43;10.23;;;;;;;19.76;42.68;100824.47;4619896;31;20063;-63
2023/12/12 00:44:00;;;;;;;11.63;10.43;;;;;;;19.76;42.71;100814.59;4620971;31;20436;-63
2023/12/12 00:46:27;;;;;;;12.00;10.70;;;;;;;19.75;42.78;100818.25;4620474;31;20054;-63
2023/12/12 00:48:55;;;;;;;11.98;10.25;;;;;;;19.74;42.42;100826.47;4611567;31;20047;-63
2023/12/12 00:51:22;;;;;;;12.20;10.93;;;;;;;19.73;42.86;100836.38;4619945;31;20067;-63
2023/12/12 00:53:50;;;;;;;11.90;10.70;;;;;;;19.72;42.68;100837.31;4633479;30;20051;-63
2023/12/12 00:56:17;;;;;;;10.98;9.85;;;;;;;19.72;42.80;100836.47;4621120;31;20052;-63
2023/12/12 00:58:44;;;;;;;11.57;10.07;;;;;;;19.72;42.62;100831.09;4611168;31;20055;-63
2023/12/12 01:01:13;;;;;;;11.73;10.40;;;;;;;19.71;42.57;100824.03;4619546;31;20063;-64
2023/12/12 01:03:41;;;;;;;11.52;10.32;;;;;;;19.70;42.61;100815.13;4620879;31;20065;-63
2023/12/12 01:06:08;;;;;;;10.85;9.73;;;;;;;19.69;42.59;100808.06;4620671;31;20066;-61
2023/12/12 01:08:36;;;;;;;11.07;9.98;;;;;;;19.69;42.55;100805.38;4619796;31;20416;-61
2023/12/12 01:11:03;;;;;;;11.02;9.93;;;;;;;19.69;42.71;100804.53;4620171;31;20082;-61
2023/12/12 01:13:30;;;;;;;11.63;10.35;;;;;;;19.67;42.76;100799.28;4620649;31;20058;-61
2023/12/12 01:15:58;;;;;;;12.13;10.85;;;;;;;19.67;42.60;100801.97;4620978;31;20055;-63
2023/12/12 01:18:26;;;;;;;13.02;9.68;;;;;;;19.67;42.62;100803.81;4610759;31;20078;-63
2023/12/12 01:20:54;;;;;;;10.88;9.77;;;;;;;19.67;42.70;100811.88;4619389;31;20056;-63
2023/12/12 01:23:21;;;;;;;10.93;9.82;;;;;;;19.66;42.70;100813.72;4619906;31;20071;-63
2023/12/12 01:25:49;;;;;;;11.93;10.13;;;;;;;19.65;42.77;100820.06;4620374;31;20649;-62
2023/12/12 01:28:16;;;;;;;10.38;9.38;;;;;;;19.65;42.58;100813.84;4619264;31;20059;-63
2023/12/12 01:30:44;;;;;;;11.82;9.93;;;;;;;19.65;42.60;100808.47;4619486;31;20055;-63
2023/12/12 01:33:12;;;;;;;11.00;9.90;;;;;;;19.64;42.79;100794.16;4620612;31;20060;-63
2023/12/12 01:35:39;;;;;;;10.80;9.70;;;;;;;19.63;42.70;100784.44;4620331;31;20063;-62
2023/12/12 01:38:07;;;;;;;11.73;10.52;;;;;;;19.63;42.65;100776.38;4619068;31;20509;-61
2023/12/12 01:40:34;;;;;;;11.27;10.07;;;;;;;19.62;42.54;100787.25;4618855;31;20067;-61
2023/12/12 01:43:05;;;;;;;11.10;9.98;;;;;;;19.62;42.62;100780.03;4620159;31;20063;-61
2023/12/12 01:45:33;;;;;;;11.45;10.25;;;;;;;19.62;42.54;100777.34;4619750;31;20047;-61
2023/12/12 01:48:00;;;;;;;10.25;9.25;;;;;;;19.62;42.54;100776.50;4618980;31;20059;-62
2023/12/12 01:50:28;;;;;;;12.18;10.88;;;;;;;19.61;42.51;100778.34;4619309;31;20063;-63
2023/12/12 01:52:55;;;;;;;12.02;10.82;;;;;;;19.60;42.47;100779.28;4620353;31;20059;-63
2023/12/12 01:55:23;;;;;;;10.90;9.73;;;;;;;19.60;42.52;100783.81;4619389;31;20059;-63
2023/12/12 01:57:51;;;;;;;10.95;9.88;;;;;;;19.60;42.57;100779.28;4618556;31;20052;-61
2023/12/12 02:00:18;;;;;;;10.70;9.60;;;;;;;19.60;42.57;100775.75;4618747;31;20428;-61
2023/12/12 02:02:45;;;;;;;12.02;10.52;;;;;;;19.60;42.56;100773.91;4620678;31;20166;-61
2023/12/12 02:05:14;;;;;;;10.52;9.43;;;;;;;19.60;42.50;100792.72;4619125;31;20059;-61
2023/12/12 02:07:43;;;;;;;10.27;9.18;;;;;;;19.59;42.25;100782.97;4618544;31;20063;-61
2023/12/12 02:10:10;;;;;;;11.23;10.05;;;;;;;19.59;42.29;100788.34;4618501;31;20067;-60
2023/12/12 02:12:38;;;;;;;11.07;9.98;;;;;;;19.59;42.31;100780.28;4618317;31;20051;-61
2023/12/12 02:15:06;;;;;;;11.75;9.98;;;;;;;19.58;42.26;100781.28;4620164;31;20062;-60
2023/12/12 02:17:34;;;;;;;11.68;10.48;;;;;;;19.59;42.39;100792.84;4618664;31;20500;-61
2023/12/12 02:20:03;;;;;;;10.65;9.57;;;;;;;19.58;42.48;100789.31;4618254;31;20056;-60
2023/12/12 02:22:30;;;;;;;10.65;9.55;;;;;;;19.57;42.28;100790.31;4620500;31;20063;-60
2023/12/12 02:24:58;;;;;;;10.80;9.70;;;;;;;19.57;42.41;100806.44;4631304;30;20055;-60
2023/12/12 02:27:25;;;;;;;9.68;8.88;;;;;;;19.57;42.35;100797.50;4617706;31;20520;-60
2023/12/12 02:29:53;;;;;;;10.48;9.48;;;;;;;19.56;42.45;100796.66;4618179;31;20060;-61
2023/12/12 02:32:20;;;;;;;10.18;9.18;;;;;;;19.55;42.40;100792.28;4620392;31;20408;-60
2023/12/12 02:34:48;;;;;;;9.93;8.60;;;;;;;19.55;42.32;100780.69;4618150;31;20067;-61
2023/12/12 02:37:16;;;;;;;10.18;9.20;;;;;;;19.55;42.30;100776.16;4618384;31;20059;-62
2023/12/12 02:39:43;;;;;;;10.30;9.30;;;;;;;19.56;42.54;100771.63;4617680;31;20059;-63
2023/12/12 02:42:10;;;;;;;10.02;9.02;;;;;;;19.55;42.47;100760.03;4620425;31;20067;-63
2023/12/12 02:44:38;;;;;;;10.50;9.50;;;;;;;19.54;42.25;100750.31;4618162;31;20060;-63
2023/12/12 02:47:05;;;;;;;10.05;9.05;;;;;;;19.54;42.15;100750.31;4618447;31;20059;-62
2023/12/12 02:49:32;;;;;;;10.00;9.10;;;;;;;19.52;42.29;100746.88;4617933;31;20083;-63
2023/12/12 02:52:00;;;;;;;9.55;8.63;;;;;;;19.52;42.13;100746.88;4620110;31;20070;-63
2023/12/12 02:54:27;;;;;;;9.65;8.75;;;;;;;19.53;42.23;100751.28;4618117;31;20067;-63
2023/12/12 02:56:55;;;;;;;10.27;9.27;;;;;;;19.52;42.14;100755.78;4617610;31;20062;-62
2023/12/12 02:59:22;;;;;;;9.80;8.80;;;;;;;19.52;42.08;100749.56;4629136;30;20455;-63
2023/12/12 03:01:50;;;;;;;9.77;8.77;;;;;;;19.52;42.02;100722.72;4619999;31;20058;-62
2023/12/12 03:04:17;;;;;;;10.55;9.18;;;;;;;19.52;42.11;100725.41;4617967;31;20058;-62
2023/12/12 03:06:45;;;;;;;10.77;9.30;;;;;;;19.50;42.20;100733.59;4617843;31;20062;-61
2023/12/12 03:09:12;;;;;;;9.60;8.70;;;;;;;19.50;42.24;100754.25;4617860;31;20052;-61
2023/12/12 03:11:39;;;;;;;8.82;7.95;;;;;;;19.51;42.24;100758.63;4623829;31;20489;-61
2023/12/12 03:14:07;;;;;;;10.10;9.10;;;;;;;19.51;42.27;100769.34;4621528;31;20059;-61
2023/12/12 03:16:34;;;;;;;8.93;8.13;;;;;;;19.49;42.20;100788.28;4621127;31;20059;-62
2023/12/12 03:19:03;;;;;;;9.57;8.65;;;;;;;19.49;42.13;100804.41;4620986;31;20508;-62
2023/12/12 03:21:30;;;;;;;8.93;8.02;;;;;;;19.49;42.22;100808.94;4623471;31;20086;-63
2023/12/12 03:23:58;;;;;;;9.55;8.60;;;;;;;19.47;41.96;100801.00;4621217;31;20064;-63
2023/12/12 03:26:25;;;;;;;10.38;9.35;;;;;;;19.48;42.10;100815.25;4621189;31;20056;-61
2023/12/12 03:28:52;;;;;;;9.38;8.48;;;;;;;19.47;42.26;100822.47;4620570;31;20055;-61
2023/12/12 03:31:19;;;;;;;9.05;8.15;;;;;;;19.46;42.18;100820.78;4623143;31;20060;-61
2023/12/12 03:33:47;;;;;;;8.65;7.82;;;;;;;19.47;42.08;100825.16;4621259;31;20060;-62
2023/12/12 03:36:14;;;;;;;8.98;8.07;;;;;;;19.46;42.08;100830.66;4621458;31;20056;-62
2023/12/12 03:38:42;;;;;;;9.80;8.55;;;;;;;19.46;42.11;100828.84;4620833;31;20060;-63
2023/12/12 03:41:11;;;;;;;10.05;8.98;;;;;;;19.47;42.08;100840.41;4623143;31;20059;-62
2023/12/12 03:43:39;;;;;;;10.27;8.98;;;;;;;19.46;42.16;100830.66;4620702;30;20063;-63
2023/12/12 03:46:13;;;;;;;9.85;8.68;;;;;;;19.45;42.09;100821.78;4620774;31;20060;-62
2023/12/12 03:48:40;;;;;;;8.77;7.93;;;;;;;19.45;42.21;100812.88;4620332;31;20067;-63
2023/12/12 03:51:09;;;;;;;9.30;8.38;;;;;;;19.45;42.04;100829.81;4619316;31;20534;-63
2023/12/12 03:53:38;;;;;;;9.95;8.23;;;;;;;19.46;42.11;100825.31;4620606;31;20431;-63
2023/12/12 03:56:06;;;;;;;10.73;8.50;;;;;;;19.46;42.10;100825.31;4633613;30;20060;-61
2023/12/12 03:58:34;;;;;;;10.05;9.00;;;;;;;19.45;42.02;100821.78;4621015;31;20416;-61
2023/12/12 04:01:02;;;;;;;9.70;8.70;;;;;;;19.45;42.09;100826.28;4623637;31;20047;-61
2023/12/12 04:03:31;;;;;;;9.43;8.48;;;;;;;19.44;42.10;100832.63;4620813;31;20067;-61
2023/12/12 04:06:02;;;;;;;9.90;8.60;;;;;;;19.45;42.28;100834.34;4620682;31;20060;-62
2023/12/12 04:08:30;;;;;;;9.82;8.90;;;;;;;19.44;42.16;100835.31;4621445;31;20062;-63
2023/12/12 04:10:57;;;;;;;9.85;8.57;;;;;;;19.44;42.21;100832.63;4621916;31;20058;-63
2023/12/12 04:13:24;;;;;;;8.48;7.65;;;;;;;19.43;42.06;100830.94;4620375;31;20553;-63
2023/12/12 04:15:52;;;;;;;12.65;8.93;;;;;;;19.43;42.10;100831.78;4620511;31;20067;-61
2023/12/12 04:18:20;;;;;;;9.70;8.55;;;;;;;19.43;42.13;100834.47;4621383;31;20051;-60
2023/12/12 04:20:47;;;;;;;9.25;8.35;;;;;;;19.43;42.16;100833.63;4622458;30;20052;-60
2023/12/12 04:23:14;;;;;;;9.52;8.63;;;;;;;19.43;42.09;100830.94;4611286;31;20071;-60
2023/12/12 04:25:42;;;;;;;9.75;8.75;;;;;;;19.44;42.15;100821.88;4620718;31;20413;-62
2023/12/12 04:28:10;;;;;;;9.65;8.68;;;;;;;19.44;42.14;100832.63;4621562;31;20078;-63
2023/12/12 04:30:37;;;;;;;9.32;8.43;;;;;;;19.43;42.12;100825.56;4621634;31;20055;-63
2023/12/12 04:33:04;;;;;;;10.63;9.00;;;;;;;19.42;42.12;100830.09;4619971;31;20119;-63
2023/12/12 04:35:32;;;;;;;10.32;8.85;;;;;;;19.42;42.25;100838.13;4632619;30;20063;-63
2023/12/12 04:37:59;;;;;;;11.77;9.23;;;;;;;19.42;42.22;100842.66;4633692;30;20497;-60
2023/12/12 04:40:29;;;;;;;10.32;9.32;;;;;;;19.42;42.07;100850.72;4621381;31;20059;-61
2023/12/12 04:42:57;;;;;;;10.45;8.70;;;;;;;19.42;42.15;100850.72;4611143;31;20063;-61
2023/12/12 04:45:24;;;;;;;10.75;9.70;;;;;;;19.40;42.37;100856.19;4619758;31;20051;-60
2023/12/12 04:47:51;;;;;;;9.73;8.73;;;;;;;19.40;42.49;100848.13;4621088;31;20059;-63
2023/12/12 04:50:19;;;;;;;11.00;9.90;;;;;;;19.40;42.35;100847.28;4621067;31;20055;-63
2023/12/12 04:52:47;;;;;;;13.27;10.13;;;;;;;19.40;42.44;100850.81;4611019;31;20063;-63
2023/12/12 04:55:14;;;;;;;11.57;10.30;;;;;;;19.41;42.41;100859.75;4619839;31;20052;-63
2023/12/12 04:57:43;;;;;;;11.02;9.23;;;;;;;19.40;42.36;100863.41;4620932;31;20071;-62
2023/12/12 05:00:14;;;;;;;11.75;9.88;;;;;;;19.40;42.59;100874.97;4620885;31;20062;-63
2023/12/12 05:02:42;;;;;;;12.55;10.35;;;;;;;19.39;42.67;100861.69;4619637;31;20064;-63
2023/12/12 05:05:09;;;;;;;12.15;9.82;;;;;;;19.39;42.47;100873.28;4619597;31;20055;-63
2023/12/12 05:07:36;;;;;;;10.23;9.10;;;;;;;19.40;42.67;100876.81;4621332;31;20082;-61
2023/12/12 05:10:05;;;;;;;11.15;9.80;;;;;;;19.39;42.70;100869.75;4619603;30;20066;-60
2023/12/12 05:12:32;;;;;;;10.35;9.10;;;;;;;19.39;42.59;100869.75;4619642;31;20405;-60
2023/12/12 05:15:02;;;;;;;10.98;9.82;;;;;;;19.38;42.60;100870.75;4619242;31;20059;-60
2023/12/12 05:17:29;;;;;;;12.38;9.65;;;;;;;19.38;42.73;100876.97;4621369;31;20546;-60
2023/12/12 05:19:58;;;;;;;12.38;10.43;;;;;;;19.37;42.68;100886.00;4619588;31;20047;-60
2023/12/12 05:22:26;;;;;;;10.75;9.60;;;;;;;19.38;42.62;100892.22;4617743;31;20534;-60
2023/12/12 05:24:53;;;;;;;12.43;9.88;;;;;;;19.38;42.78;100895.75;4619087;31;20067;-60
2023/12/12 05:27:21;;;;;;;12.52;9.65;;;;;;;19.39;42.81;100899.28;4621764;31;20485;-62
2023/12/12 05:29:48;;;;;;;12.70;10.07;;;;;;;19.38;42.76;100897.59;4619540;31;20063;-63
2023/12/12 05:32:16;;;;;;;11.57;9.43;;;;;;;19.38;43.20;100898.44;4618705;31;20067;-63
2023/12/12 05:34:43;;;;;;;14.55;10.60;;;;;;;19.38;42.93;100893.06;4618903;31;20523;-63
2023/12/12 05:37:11;;;;;;;13.23;9.95;;;;;;;19.38;43.11;100887.69;4621130;31;20056;-60
2023/12/12 05:39:38;;;;;;;13.88;10.02;;;;;;;19.37;42.94;100882.47;4619153;31;20060;-60
2023/12/12 05:42:05;;;;;;;13.13;9.88;;;;;;;19.37;43.09;100869.91;4619036;31;20056;-60
2023/12/12 05:44:33;;;;;;;15.75;12.15;;;;;;;19.37;43.10;100874.44;4618892;31;20060;-60
2023/12/12 05:47:00;;;;;;;14.77;10.27;;;;;;;19.37;43.06;100859.16;4621201;31;20511;-60
2023/12/12 05:49:28;;;;;;;12.40;9.90;;;;;;;19.37;43.23;100863.69;4619325;31;20403;-60
2023/12/12 05:51:56;;;;;;;13.18;10.35;;;;;;;19.36;43.15;100873.53;4618290;31;20056;-60
2023/12/12 05:54:23;;;;;;;13.30;10.00;;;;;;;19.37;43.25;100869.06;4618951;31;20064;-61
2023/12/12 05:56:53;;;;;;;16.05;11.43;;;;;;;19.38;43.28;100876.13;4621287;31;20067;-61
2023/12/12 05:59:21;;;;;;;14.60;11.07;;;;;;;19.36;43.15;100873.53;4619054;31;20063;-61
2023/12/12 06:01:48;;;;;;;14.25;10.60;;;;;;;19.37;43.15;100869.06;4618238;31;20070;-60
2023/12/12 06:04:16;;;;;;;14.57;10.48;;;;;;;19.38;43.58;100858.16;4618549;31;20067;-62
2023/12/12 06:06:44;;;;;;;16.75;11.30;;;;;;;19.40;43.37;100858.03;4620837;31;20062;-62
2023/12/12 06:09:12;;;;;;;15.38;11.57;;;;;;;19.40;43.48;100868.78;4618370;31;20060;-63
2023/12/12 06:11:41;;;;;;;13.68;10.88;;;;;;;19.40;43.41;100874.97;4618524;31;20386;-63
2023/12/12 06:14:09;;;;;;;15.93;11.10;;;;;;;19.40;43.21;100880.34;4618315;31;20060;-63
2023/12/12 06:16:37;;;;;;;15.60;11.32;;;;;;;19.39;43.17;100867.91;4620840;31;20543;-62
2023/12/12 06:19:05;;;;;;;15.30;10.70;;;;;;;19.38;43.32;100860.00;4616997;31;20060;-63
2023/12/12 06:21:34;;;;;;;16.23;11.40;;;;;;;19.39;43.34;100880.50;4618519;31;20060;-63
2023/12/12 06:24:01;;;;;;;18.60;11.70;;;;;;;19.37;43.45;100879.78;4618308;31;20504;-63
2023/12/12 06:26:30;;;;;;;17.17;12.07;;;;;;;19.37;43.45;100867.22;4621889;31;20070;-62
2023/12/12 06:28:57;;;;;;;16.52;10.90;;;;;;;19.37;43.31;100869.06;4618270;31;20060;-63
2023/12/12 06:31:25;;;;;;;18.65;12.88;;;;;;;19.37;43.31;100885.16;4617961;31;20055;-62
2023/12/12 06:33:53;;;;;;;18.42;12.57;;;;;;;19.36;43.35;100883.44;4618428;31;20430;-63
2023/12/12 06:36:20;;;;;;;19.90;11.68;;;;;;;19.36;43.31;100888.81;4619640;31;20424;-60
2023/12/12 06:38:48;;;;;;;19.00;13.25;;;;;;;19.35;43.40;100884.44;4617957;31;20075;-60
2023/12/12 06:41:15;;;;;;;15.98;12.20;;;;;;;19.35;43.46;100871.00;4617681;31;20063;-60
2023/12/12 06:43:43;;;;;;;16.75;12.00;;;;;;;19.34;43.49;100870.16;4618177;31;20060;-60
2023/12/12 06:46:11;;;;;;;17.92;12.10;;;;;;;19.34;43.43;100880.03;4614053;31;20504;-62
2023/12/12 06:48:38;;;;;;;16.60;11.55;;;;;;;19.34;43.54;100886.25;4618792;30;20070;-63
2023/12/12 06:51:06;;;;;;;17.10;11.30;;;;;;;19.32;43.41;100874.78;4618299;31;20048;-63
2023/12/12 06:53:34;;;;;;;17.33;12.48;;;;;;;19.33;43.50;100875.66;4617994;31;20060;-63
2023/12/12 06:56:02;;;;;;;19.30;13.07;;;;;;;19.33;43.37;100883.72;4620287;30;20070;-62
2023/12/12 06:58:29;;;;;;;18.50;12.07;;;;;;;19.32;43.23;100890.03;4618212;31;20063;-63
2023/12/12 07:00:57;;;;;;;16.33;12.05;;;;;;;19.32;43.41;100892.72;4617563;31;20052;-63
2023/12/12 07:03:24;;;;;;;16.38;11.18;;;;;;;19.32;43.53;100890.91;4616767;31;20060;-67
2023/12/12 07:05:52;;;;;;;19.02;12.32;;;;;;;19.33;43.51;100898.00;4619975;31;20055;-62
2023/12/12 07:08:21;;;;;;;19.02;11.95;;;;;;;19.35;43.66;100895.16;4617611;31;20481;-63
2023/12/12 07:10:48;;;;;;;19.02;12.27;;;;;;;19.35;43.50;100903.22;4617674;31;20048;-63
2023/12/12 07:13:16;;;;;;;16.45;13.32;;;;;;;19.35;43.63;100909.44;4618120;31;20528;-63
2023/12/12 07:16:00;;;;;;;17.52;11.80;;;;;;;19.34;43.54;100906.88;4618292;31;20056;-61
2023/12/12 07:18:29;;;;;;;19.23;12.70;;;;;;;19.36;43.56;100912.97;4617659;31;20063;-61
2023/12/12 07:20:59;;;;;;;17.30;12.00;;;;;;;19.35;43.60;100912.13;4618260;31;20052;-61
2023/12/12 07:23:27;;;;;;;17.25;13.05;;;;;;;19.34;43.48;100906.88;4620484;31;20404;-61
2023/12/12 07:25:55;;;;;;;17.92;12.10;;;;;;;19.34;43.50;100912.25;4617800;31;20092;-62
2023/12/12 07:28:23;;;;;;;18.20;11.75;;;;;;;19.34;43.66;100896.16;4617593;31;20056;-62
2023/12/12 07:30:53;;;;;;;18.75;12.73;;;;;;;19.35;43.86;100895.16;4617608;31;20056;-62
2023/12/12 07:33:20;;;;;;;18.85;11.38;;;;;;;19.35;43.82;100908.59;4620295;31;20066;-63
2023/12/12 07:35:48;;;;;;;17.30;11.85;;;;;;;19.34;43.79;100907.75;4617582;31;20060;-62
2023/12/12 07:38:16;;;;;;;19.83;12.80;;;;;;;19.34;44.00;100905.06;4616347;31;20060;-63
2023/12/12 07:40:44;;;;;;;19.35;13.02;;;;;;;19.34;43.81;100901.53;4617820;31;20416;-62
2023/12/12 07:43:12;;;;;;;17.45;11.98;;;;;;;19.33;44.00;100899.81;4620383;31;20059;-63
2023/12/12 07:45:40;;;;;;;20.00;12.45;;;;;;;19.32;43.98;100904.31;4617410;31;20055;-62
2023/12/12 07:48:07;;;;;;;22.50;12.63;;;;;;;19.33;43.69;100905.19;4617433;31;20056;-58
2023/12/12 07:50:36;;;;;;;19.33;12.07;;;;;;;19.33;44.02;100902.50;4617377;31;20504;-59
2023/12/12 07:53:04;;;;;;;19.30;12.00;;;;;;;19.33;43.78;100900.66;4616534;31;20047;-59
2023/12/12 07:55:32;;;;;;;18.20;12.32;;;;;;;19.33;43.79;100918.63;4618308;31;20066;-59
2023/12/12 07:57:59;;;;;;;21.35;13.00;;;;;;;19.32;43.65;100920.41;4620854;31;20070;-60
2023/12/12 08:00:27;;;;;;;19.90;13.27;;;;;;;19.31;43.62;100926.78;4620732;31;20059;-61
2023/12/12 08:02:54;;;;;;;18.98;12.23;;;;;;;19.32;43.83;100946.41;4622962;31;20051;-60
2023/12/12 08:05:22;;;;;;;20.35;13.32;;;;;;;19.31;43.72;100929.47;4619899;31;20444;-60
2023/12/12 08:07:49;;;;;;;20.00;12.60;;;;;;;19.32;43.69;100925.78;4620375;31;20070;-59
2023/12/12 08:10:17;;;;;;;20.40;12.70;;;;;;;19.33;44.04;100935.56;4620386;31;20055;-59
2023/12/12 08:12:44;;;;;;;24.77;13.68;;;;;;;19.33;44.29;100938.25;4623184;31;20051;-59
2023/12/12 08:15:12;;;;;;;20.08;12.75;;;;;;;19.34;44.27;100939.09;4620257;31;20063;-59
2023/12/12 08:17:40;;;;;;;18.40;12.07;;;;;;;19.33;44.31;100930.19;4620785;31;20055;-62
2023/12/12 08:20:08;;;;;;;18.67;12.45;;;;;;;19.34;44.49;100926.53;4620089;31;20127;-62
2023/12/12 08:22:37;;;;;;;17.13;11.90;;;;;;;19.34;44.46;100939.94;4622326;31;20123;-62
2023/12/12 08:25:07;;;;;;;18.92;12.90;;;;;;;19.35;44.25;100952.38;4619740;31;20064;-62
2023/12/12 08:27:35;;;;;;;21.88;12.95;;;;;;;19.34;44.14;100956.06;4619941;31;20512;-59
2023/12/12 08:30:05;;;;;;;18.85;12.73;;;;;;;19.34;44.23;100958.75;4618893;31;20058;-59
2023/12/12 08:32:33;;;;;;;19.77;12.50;;;;;;;19.35;44.28;100964.97;4621241;31;20055;-59
2023/12/12 08:35:00;;;;;;;19.42;12.18;;;;;;;19.33;44.32;100953.50;4615749;31;20405;-59
2023/12/12 08:37:30;;;;;;;16.13;11.85;;;;;;;19.33;44.25;100950.81;4620032;31;20052;-61
2023/12/12 08:39:58;;;;;;;17.83;11.20;;;;;;;19.33;44.50;100953.50;4620657;31;20064;-62
2023/12/12 08:42:26;;;;;;;16.98;11.48;;;;;;;19.33;44.23;100956.19;4620659;31;20059;-62
2023/12/12 08:44:53;;;;;;;19.55;11.85;;;;;;;19.33;44.26;100950.81;4619593;31;20083;-62
2023/12/12 08:47:20;;;;;;;18.10;12.40;;;;;;;19.32;44.11;100951.78;4620042;31;20075;-62
2023/12/12 08:49:48;;;;;;;18.50;12.73;;;;;;;19.32;44.10;100952.63;4619743;31;20056;-62
2023/12/12 08:52:15;;;;;;;18.70;12.68;;;;;;;19.31;44.00;100942.88;4620714;31;20051;-62
2023/12/12 08:54:45;;;;;;;19.35;12.13;;;;;;;19.32;43.98;100941.06;4619567;31;20056;-62
2023/12/12 08:57:15;;;;;;;17.02;11.82;;;;;;;19.30;44.05;100951.94;4619697;31;20524;-62
2023/12/12 08:59:42;;;;;;;18.35;12.10;;;;;;;19.31;44.22;100953.63;4621094;31;20067;-62
2023/12/12 09:02:10;;;;;;;17.40;11.68;;;;;;;19.31;43.98;100945.56;4619549;30;20116;-62
2023/12/12 09:04:37;;;;;;;17.58;11.65;;;;;;;19.31;44.13;100942.03;4616528;31;20425;-62
2023/12/12 09:07:05;;;;;;;15.52;11.70;;;;;;;19.31;44.22;100948.25;4619032;31;20147;-62
2023/12/12 09:09:32;;;;;;;16.20;10.85;;;;;;;19.32;44.33;100949.09;4620325;31;20402;-62
2023/12/12 09:12:03;;;;;;;17.65;11.50;;;;;;;19.32;44.56;100949.94;4619600;31;20052;-62
2023/12/12 09:14:30;;;;;;;16.98;10.88;;;;;;;19.33;44.26;100969.63;4617935;31;20063;-62
2023/12/12 09:16:58;;;;;;;14.88;10.85;;;;;;;19.32;44.20;100973.25;4619309;31;20052;-61
2023/12/12 09:19:27;;;;;;;16.15;11.02;;;;;;;19.32;44.12;100979.47;4621273;31;20059;-62
2023/12/12 09:21:55;;;;;;;18.33;11.50;;;;;;;19.31;44.15;100975.09;4618827;31;20772;-62
2023/12/12 09:24:23;;;;;;;17.17;10.98;;;;;;;19.31;44.41;100983.16;4618704;31;20063;-62
2023/12/12 09:26:51;;;;;;;13.90;11.00;;;;;;;19.33;44.33;100980.34;4619210;31;20055;-59
2023/12/12 09:29:18;;;;;;;18.92;11.05;;;;;;;19.30;44.17;100970.72;4621221;31;20060;-59
2023/12/12 09:31:46;;;;;;;15.57;10.23;;;;;;;19.30;44.11;100962.66;4618662;31;20060;-59
2023/12/12 09:34:13;;;;;;;14.60;10.63;;;;;;;19.32;44.12;100967.88;4618661;31;20063;-58
2023/12/12 09:36:41;;;;;;;17.52;11.38;;;;;;;19.32;43.93;100959.84;4619124;31;20454;-61
2023/12/12 09:39:10;;;;;;;17.95;10.88;;;;;;;19.31;43.96;100947.41;4621166;31;20066;-62
2023/12/12 09:41:38;;;;;;;16.20;11.35;;;;;;;19.30;44.03;100930.44;4617173;31;20066;-61
2023/12/12 09:44:06;;;;;;;14.88;10.57;;;;;;;19.31;44.13;100932.16;4618735;31;20054;-62
2023/12/12 09:46:34;;;;;;;16.27;10.93;;;;;;;19.32;43.44;100935.69;4619141;31;20500;-61
2023/12/12 09:49:06;;;;;;;14.63;11.82;;;;;;;19.31;42.77;100934.84;4619287;31;20051;-62
2023/12/12 09:51:34;;;;;;;14.00;12.23;;;;;;;19.25;42.48;100925.47;4618389;31;20417;-62
2023/12/12 09:54:06;;;;;;;13.68;10.82;;;;;;;19.24;42.91;100939.00;4618373;31;20063;-62
2023/12/12 09:56:36;;;;;;;13.18;10.77;;;;;;;19.23;42.97;100940.84;4619233;31;20409;-59
2023/12/12 09:59:08;;;;;;;14.18;10.63;;;;;;;19.23;43.18;100946.22;4619525;31;20389;-59
2023/12/12 10:01:35;;;;;;;13.98;10.15;;;;;;;19.24;43.15;100953.31;4618699;31;20086;-59
2023/12/12 10:04:06;;;;;;;12.38;9.98;;;;;;;19.25;43.45;100952.31;4618305;31;20056;-59
2023/12/12 10:06:49;;;;;;;13.73;9.95;;;;;;;19.25;43.42;100938.91;4610201;31;20060;-59
2023/12/12 10:09:16;;;;;;;13.07;10.30;;;;;;;19.25;43.52;100938.91;4617513;31;20056;-59
2023/12/12 10:11:44;;;;;;;12.27;9.23;;;;;;;19.26;43.33;100942.44;4618112;31;20051;-59
2023/12/12 10:14:12;;;;;;;12.75;9.50;;;;;;;19.25;43.47;100941.59;4618231;31;20060;-59
2023/12/12 10:16:39;;;;;;;10.63;8.63;;;;;;;19.27;43.55;100941.44;4620660;31;20062;-61
2023/12/12 10:19:11;;;;;;;13.52;9.82;;;;;;;19.25;43.47;100928.16;4617706;31;20063;-62
2023/12/12 10:21:39;;;;;;;12.90;9.43;;;;;;;19.26;43.25;100937.91;4618102;31;20056;-62
2023/12/12 10:24:06;;;;;;;12.50;9.48;;;;;;;19.26;43.62;100945.97;4618872;31;20052;-62
2023/12/12 10:26:34;;;;;;;10.90;9.10;;;;;;;19.26;43.45;100943.28;4619972;31;20065;-61
2023/12/12 10:29:02;;;;;;;11.38;9.07;;;;;;;19.27;43.49;100938.75;4617728;31;20067;-62
2023/12/12 10:31:29;;;;;;;12.10;8.77;;;;;;;19.26;43.53;100935.22;4617656;31;20063;-62
2023/12/12 10:33:57;;;;;;;10.75;7.75;;;;;;;19.26;43.45;100924.50;4618251;31;20444;-61
2023/12/12 10:36:25;;;;;;;12.40;9.05;;;;;;;19.27;43.62;100917.28;4618138;31;20059;-61
2023/12/12 10:38:53;;;;;;;9.65;7.80;;;;;;;19.27;43.71;100903.88;4617340;31;20062;-62
2023/12/12 10:41:21;;;;;;;11.02;8.48;;;;;;;19.26;43.52;100897.66;4617644;31;20064;-62
2023/12/12 10:43:55;;;;;;;11.70;9.27;;;;;;;19.24;43.31;100883.53;4619550;31;20063;-61
2023/12/12 10:46:25;;;;;;;13.70;11.35;;;;;;;19.12;42.80;100876.50;4618587;31;20074;-63
2023/12/12 10:48:54;;;;;;;15.77;12.85;;;;;;;18.94;42.47;100878.88;4617690;31;20082;-64
2023/12/12 10:51:23;;;;;;;17.00;15.27;;;;;;;18.77;42.47;100877.59;4617611;31;20055;-64
2023/12/12 10:53:54;;;;;;;15.85;14.15;;;;;;;18.59;42.67;100878.22;4632599;30;20114;-63
2023/12/12 10:56:23;;;;;;;17.40;14.88;;;;;;;18.44;42.92;100861.59;4616497;31;20063;-63
2023/12/12 10:58:51;;;;;;;17.42;15.48;;;;;;;18.33;42.98;100866.97;4630366;30;20421;-64
2023/12/12 11:01:19;;;;;;;17.50;15.70;;;;;;;18.24;43.18;100869.41;4617720;31;20056;-64
2023/12/12 11:03:50;;;;;;;17.23;15.48;;;;;;;18.16;43.27;100860.28;4619329;31;20051;-64
2023/12/12 11:06:19;;;;;;;18.10;15.98;;;;;;;18.10;43.43;100860.78;4617766;31;20520;-60
2023/12/12 11:08:46;;;;;;;18.15;16.02;;;;;;;17.99;43.42;100869.69;4617506;31;20539;-60
2023/12/12 11:11:18;;;;;;;18.13;16.33;;;;;;;17.94;43.61;100861.13;4615039;31;20059;-60
2023/12/12 11:13:51;;;;;;;18.33;16.48;;;;;;;17.88;43.92;100857.13;4631658;30;20064;-60
2023/12/12 11:16:19;;;;;;;17.95;16.15;;;;;;;17.81;44.12;100857.75;4614939;31;20082;-62
2023/12/12 11:18:48;;;;;;;19.40;17.25;;;;;;;17.76;44.14;100864.31;4617649;31;20063;-60